Time;durP1;ratioP1;P1;durP2;ratioP2;P2;SDS_P1;SDS_P2;PMS_P1;PMS_P2;Temp;Humidity;BMP_temperature;BMP_pressure;BME280_temperature;BME280_humidity;BME280_pressure;Samples;Min_cycle;Max_cycle;Signal;HPM_P1;HPM_P2
2022/07/10 00:02:25;;;;;;;14.77;4.83;;;20.10;59.70;;;;;;5049383;28;20233;-88
2022/07/10 00:04:52;;;;;;;13.50;4.23;;;20.10;59.80;;;;;;5049669;28;20203;-88
2022/07/10 00:07:19;;;;;;;10.70;4.23;;;20.10;59.80;;;;;;5048123;28;20690;-89
2022/07/10 00:09:48;;;;;;;11.47;4.53;;;20.00;60.00;;;;;;5048774;28;20238;-89
2022/07/10 00:12:15;;;;;;;11.83;4.27;;;20.00;60.00;;;;;;5050018;28;20203;-89
2022/07/10 00:14:42;;;;;;;12.27;5.07;;;20.00;60.00;;;;;;5047723;28;20204;-89
2022/07/10 00:17:09;;;;;;;9.23;3.73;;;19.90;59.90;;;;;;5048183;28;20199;-88
2022/07/10 00:19:36;;;;;;;7.90;3.73;;;19.90;59.90;;;;;;5046982;28;20655;-87
2022/07/10 00:22:04;;;;;;;10.43;4.50;;;19.90;59.90;;;;;;5031542;28;20683;-90
2022/07/10 00:24:33;;;;;;;8.13;3.50;;;19.90;60.00;;;;;;5049077;28;20211;-91
2022/07/10 00:27:01;;;;;;;11.80;4.33;;;19.80;59.90;;;;;;5045021;28;20208;-88
2022/07/10 00:29:28;;;;;;;12.00;4.63;;;19.80;60.00;;;;;;5047458;28;20219;-90
2022/07/10 00:31:55;;;;;;;8.50;3.70;;;19.80;60.00;;;;;;5048628;28;20667;-89
2022/07/10 00:34:22;;;;;;;11.40;4.77;;;19.70;60.10;;;;;;5052628;28;20203;-88
2022/07/10 00:36:52;;;;;;;12.73;5.10;;;19.70;60.10;;;;;;5053437;28;20229;-89
2022/07/10 00:39:19;;;;;;;7.73;3.47;;;19.70;60.30;;;;;;5050475;28;21014;-87
2022/07/10 00:41:46;;;;;;;14.57;5.77;;;19.70;60.10;;;;;;5049369;28;20207;-87
2022/07/10 00:44:15;;;;;;;12.10;5.07;;;19.60;60.00;;;;;;5038889;28;20203;-88
2022/07/10 00:46:43;;;;;;;7.30;3.50;;;19.60;60.20;;;;;;5048754;28;20208;-87
2022/07/10 00:49:11;;;;;;;11.97;4.93;;;19.60;60.40;;;;;;5047647;28;20251;-87
2022/07/10 00:51:38;;;;;;;12.83;4.53;;;19.50;60.40;;;;;;5047976;28;20211;-87
2022/07/10 00:54:06;;;;;;;15.70;6.37;;;19.50;60.40;;;;;;5047342;28;20212;-87
2022/07/10 00:56:33;;;;;;;13.33;5.47;;;19.50;60.50;;;;;;5045870;28;20212;-88
2022/07/10 00:59:01;;;;;;;9.20;4.40;;;19.50;60.60;;;;;;5047864;28;20925;-88
2022/07/10 01:01:29;;;;;;;16.80;6.60;;;19.40;60.50;;;;;;5045201;28;20212;-87
2022/07/10 01:03:56;;;;;;;9.67;4.17;;;19.40;60.80;;;;;;5046029;28;20616;-89
2022/07/10 01:06:23;;;;;;;10.13;4.67;;;19.30;60.40;;;;;;5047889;28;20235;-89
2022/07/10 01:08:50;;;;;;;11.00;4.70;;;19.30;60.50;;;;;;5045653;28;20229;-88
2022/07/10 01:11:18;;;;;;;10.60;3.97;;;19.30;60.70;;;;;;5050316;28;20231;-88
2022/07/10 01:13:46;;;;;;;10.47;3.73;;;19.30;60.90;;;;;;5046987;28;20211;-87
2022/07/10 01:16:14;;;;;;;14.43;5.20;;;19.30;60.90;;;;;;5047431;28;20930;-87
2022/07/10 01:18:42;;;;;;;12.23;4.40;;;19.20;60.80;;;;;;5051660;28;20307;-87
2022/07/10 01:24:11;;;;;;;15.43;6.20;;;19.20;61.00;;;;;;5158881;27;20640;-87
2022/07/10 01:26:42;;;;;;;19.20;7.20;;;19.20;61.30;;;;;;5129001;27;20207;-87
2022/07/10 01:29:11;;;;;;;11.73;4.90;;;19.20;61.20;;;;;;5145257;27;20200;-89
2022/07/10 01:31:41;;;;;;;9.80;4.23;;;19.20;62.10;;;;;;5147474;27;20210;-88
2022/07/10 01:34:10;;;;;;;10.97;4.27;;;19.10;61.20;;;;;;5138232;27;20219;-90
2022/07/10 01:36:37;;;;;;;8.40;3.93;;;19.10;61.50;;;;;;5144151;27;20259;-92
2022/07/10 01:39:09;;;;;;;12.63;4.33;;;19.00;61.40;;;;;;5148125;27;20314;-89
2022/07/10 01:41:37;;;;;;;12.37;5.03;;;19.00;61.70;;;;;;5148001;27;20212;-90
2022/07/10 01:44:04;;;;;;;6.87;3.27;;;18.90;61.50;;;;;;5167486;27;20709;-90
2022/07/10 01:46:32;;;;;;;9.50;4.07;;;18.90;61.60;;;;;;5167444;27;20222;-87
2022/07/10 01:48:59;;;;;;;8.83;3.70;;;18.90;61.70;;;;;;5155743;27;20211;-89
2022/07/10 01:51:26;;;;;;;9.30;4.00;;;18.80;61.60;;;;;;5145291;27;20718;-89
2022/07/10 01:53:53;;;;;;;9.33;4.17;;;18.80;61.60;;;;;;5146774;27;20219;-89
2022/07/10 01:56:26;;;;;;;11.67;4.63;;;18.80;61.60;;;;;;5143770;27;20244;-87
2022/07/10 01:58:54;;;;;;;9.43;4.20;;;18.70;62.00;;;;;;5144971;27;20729;-91
2022/07/10 02:01:21;;;;;;;12.30;4.60;;;18.70;61.50;;;;;;5135349;27;20550;-88
2022/07/10 02:06:32;;;;;;;9.57;3.80;;;18.70;61.70;;;;;;5125068;27;20207;-87
2022/07/10 02:08:59;;;;;;;19.93;6.60;;;18.70;62.00;;;;;;5125104;27;20204;-89
2022/07/10 02:11:29;;;;;;;8.37;3.53;;;18.70;62.10;;;;;;5144430;27;20276;-88
2022/07/10 02:13:56;;;;;;;13.90;4.77;;;18.70;62.40;;;;;;5144787;27;20295;-87
2022/07/10 02:16:26;;;;;;;11.60;4.37;;;18.70;62.20;;;;;;5131837;27;20214;-90
2022/07/10 02:18:54;;;;;;;8.30;3.03;;;18.60;62.60;;;;;;5125645;27;20260;-90
2022/07/10 02:21:21;;;;;;;12.93;4.50;;;18.60;62.50;;;;;;5124463;27;20245;-88
2022/07/10 02:23:48;;;;;;;9.90;3.93;;;18.60;62.70;;;;;;5123753;27;20337;-89
2022/07/10 02:26:15;;;;;;;13.50;5.13;;;18.60;62.80;;;;;;5125606;27;20208;-89
2022/07/10 02:28:44;;;;;;;9.70;3.70;;;18.60;62.90;;;;;;5143182;27;20200;-88
2022/07/10 02:31:11;;;;;;;15.57;5.23;;;18.50;62.70;;;;;;5137625;27;20199;-88
2022/07/10 02:33:38;;;;;;;9.67;3.57;;;18.50;62.50;;;;;;5121469;28;20302;-90
2022/07/10 02:36:05;;;;;;;9.30;3.47;;;18.50;62.50;;;;;;5121036;27;20290;-89
2022/07/10 02:38:35;;;;;;;11.77;4.10;;;18.50;62.50;;;;;;5131309;27;20275;-88
2022/07/10 02:41:02;;;;;;;8.60;3.43;;;18.50;62.70;;;;;;5118398;27;20219;-89
2022/07/10 02:43:30;;;;;;;11.03;4.13;;;18.40;62.50;;;;;;5116376;27;20773;-89
2022/07/10 02:45:58;;;;;;;7.17;3.17;;;18.40;62.50;;;;;;5118755;27;20786;-89
2022/07/10 02:48:25;;;;;;;15.90;5.53;;;18.40;63.00;;;;;;5113303;27;20259;-90
2022/07/10 02:50:52;;;;;;;9.70;3.40;;;18.40;63.00;;;;;;5111244;28;20234;-87
2022/07/10 02:53:20;;;;;;;15.63;5.37;;;18.40;62.90;;;;;;5121160;27;20654;-86
2022/07/10 02:55:48;;;;;;;14.27;5.23;;;18.30;62.80;;;;;;5110544;27;20661;-87
2022/07/10 02:58:17;;;;;;;9.63;4.30;;;18.30;62.80;;;;;;5130107;27;20210;-89
2022/07/10 03:00:44;;;;;;;10.60;3.80;;;18.30;62.80;;;;;;5130512;27;20423;-88
2022/07/10 03:03:13;;;;;;;9.67;3.77;;;18.30;62.90;;;;;;5132504;27;20233;-88
2022/07/10 03:05:40;;;;;;;11.90;4.70;;;18.20;63.10;;;;;;5120417;27;20196;-87
2022/07/10 03:08:07;;;;;;;13.57;3.90;;;18.20;63.10;;;;;;5114114;28;20195;-89
2022/07/10 03:10:34;;;;;;;14.27;5.20;;;18.20;63.20;;;;;;5111565;27;20608;-87
2022/07/10 03:13:02;;;;;;;9.77;3.67;;;18.10;63.00;;;;;;5109385;27;20210;-87
2022/07/10 03:15:29;;;;;;;10.13;3.63;;;18.10;63.30;;;;;;5120661;27;20250;-87
2022/07/10 03:17:56;;;;;;;10.30;3.97;;;18.10;63.30;;;;;;5118845;27;20319;-87
2022/07/10 03:20:25;;;;;;;12.77;4.63;;;18.10;63.40;;;;;;5118756;27;20240;-87
2022/07/10 03:22:52;;;;;;;12.90;4.63;;;18.10;63.70;;;;;;5119157;27;20278;-88
2022/07/10 03:25:19;;;;;;;14.63;5.07;;;18.10;63.40;;;;;;5123169;27;20215;-88
2022/07/10 03:27:47;;;;;;;11.83;4.27;;;18.10;63.50;;;;;;5129443;27;20241;-88
2022/07/10 03:30:14;;;;;;;13.97;4.97;;;18.00;63.50;;;;;;5127457;27;20197;-88
2022/07/10 03:32:41;;;;;;;13.07;4.50;;;18.00;63.40;;;;;;5109719;28;20256;-88
2022/07/10 03:35:08;;;;;;;15.13;5.23;;;17.90;63.50;;;;;;5125913;27;20258;-89
2022/07/10 03:37:37;;;;;;;14.97;4.17;;;17.90;63.50;;;;;;5128590;27;20608;-88
2022/07/10 03:40:05;;;;;;;10.70;4.10;;;17.90;63.50;;;;;;5116561;27;20207;-88
2022/07/10 03:42:32;;;;;;;12.13;4.30;;;17.90;63.50;;;;;;5124014;27;20302;-88
2022/07/10 03:44:59;;;;;;;12.30;4.07;;;17.80;63.40;;;;;;5108998;28;20196;-87
2022/07/10 03:47:27;;;;;;;13.47;4.77;;;17.80;63.40;;;;;;5112958;28;20230;-86
2022/07/10 03:49:54;;;;;;;13.63;4.87;;;17.80;63.70;;;;;;5124843;27;20225;-85
2022/07/10 03:52:21;;;;;;;8.97;3.90;;;17.80;64.80;;;;;;5129398;27;20211;-87
2022/07/10 03:54:49;;;;;;;7.83;4.07;;;17.80;64.00;;;;;;5130936;27;20258;-86
2022/07/10 04:00:01;;;;;;;11.87;4.73;;;17.70;64.40;;;;;;5128192;27;20789;-87
2022/07/10 04:02:28;;;;;;;9.87;4.17;;;17.70;64.60;;;;;;5129691;27;20199;-88
2022/07/10 04:04:55;;;;;;;9.77;3.83;;;17.70;64.80;;;;;;5126557;27;20199;-87
2022/07/10 04:07:22;;;;;;;13.13;4.27;;;17.70;65.00;;;;;;5113393;27;20822;-86
2022/07/10 04:09:50;;;;;;;10.53;4.20;;;17.70;65.10;;;;;;5112637;27;20794;-89
2022/07/10 04:12:17;;;;;;;13.47;4.47;;;17.70;65.40;;;;;;5123261;27;20294;-86
2022/07/10 04:14:51;;;;;;;17.47;6.03;;;17.70;65.50;;;;;;5127727;27;20755;-88
2022/07/10 04:17:18;;;;;;;8.20;3.30;;;17.70;65.80;;;;;;5129523;27;20202;-87
2022/07/10 04:19:46;;;;;;;17.63;6.13;;;17.70;65.50;;;;;;5123453;27;20197;-89
2022/07/10 04:22:13;;;;;;;17.07;5.93;;;17.70;65.30;;;;;;5126916;27;20891;-87
2022/07/10 04:24:39;;;;;;;10.27;4.00;;;17.70;65.40;;;;;;5127550;27;20224;-87
2022/07/10 04:27:08;;;;;;;11.90;4.03;;;17.60;65.30;;;;;;5129439;27;20208;-87
2022/07/10 04:29:35;;;;;;;13.23;4.67;;;17.70;65.60;;;;;;5110111;27;20286;-88
2022/07/10 04:32:02;;;;;;;9.10;3.57;;;17.70;65.70;;;;;;5133633;27;20204;-87
2022/07/10 04:34:29;;;;;;;13.30;4.27;;;17.70;65.70;;;;;;5136428;27;20599;-89
2022/07/10 04:36:56;;;;;;;13.67;5.17;;;17.70;65.50;;;;;;5141000;27;20277;-88
2022/07/10 04:39:23;;;;;;;7.90;4.13;;;17.70;65.30;;;;;;5134224;27;20622;-88
2022/07/10 04:41:50;;;;;;;11.40;4.10;;;17.70;65.30;;;;;;5135952;27;20650;-88
2022/07/10 04:44:19;;;;;;;9.53;3.67;;;17.70;65.20;;;;;;5116131;27;20703;-88
2022/07/10 04:46:46;;;;;;;8.47;3.70;;;17.70;65.40;;;;;;5111115;28;20279;-87
2022/07/10 04:49:13;;;;;;;10.60;4.20;;;17.70;65.40;;;;;;5124425;27;20256;-88
2022/07/10 04:51:40;;;;;;;10.73;3.87;;;17.70;65.40;;;;;;5127441;27;20577;-88
2022/07/10 04:54:07;;;;;;;9.90;3.37;;;17.70;66.60;;;;;;5127329;27;20206;-88
2022/07/10 04:56:34;;;;;;;14.77;5.13;;;17.70;66.10;;;;;;5110766;27;20200;-88
2022/07/10 04:59:01;;;;;;;9.80;4.23;;;17.70;66.10;;;;;;5108781;27;20244;-86
2022/07/10 05:01:29;;;;;;;14.97;5.30;;;17.70;66.30;;;;;;5116741;27;20723;-86
2022/07/10 05:03:56;;;;;;;9.87;4.57;;;17.70;66.80;;;;;;5111615;27;20270;-86
2022/07/10 05:06:23;;;;;;;20.07;6.80;;;17.70;66.60;;;;;;5119261;27;20260;-86
2022/07/10 05:08:50;;;;;;;14.13;4.90;;;17.70;66.40;;;;;;5107576;28;20668;-86
2022/07/10 05:11:17;;;;;;;25.97;7.73;;;17.70;66.40;;;;;;5118504;27;20227;-85
2022/07/10 05:13:46;;;;;;;9.53;3.80;;;17.70;66.40;;;;;;5120256;27;20231;-86
2022/07/10 05:16:14;;;;;;;12.00;4.33;;;17.70;66.60;;;;;;5108283;28;20210;-86
2022/07/10 05:18:42;;;;;;;8.60;4.10;;;17.80;66.90;;;;;;5127930;27;20620;-86
2022/07/10 05:21:10;;;;;;;8.10;3.70;;;17.80;67.00;;;;;;5125656;28;20662;-86
2022/07/10 05:23:39;;;;;;;10.57;4.33;;;17.80;66.80;;;;;;5111228;28;20754;-88
2022/07/10 05:26:07;;;;;;;18.43;5.73;;;17.90;67.20;;;;;;5104758;28;20287;-87
2022/07/10 05:28:36;;;;;;;18.37;6.10;;;17.90;67.30;;;;;;5105354;28;20676;-88
2022/07/10 05:31:03;;;;;;;8.73;3.57;;;18.00;67.60;;;;;;5108073;27;20211;-89
2022/07/10 05:33:30;;;;;;;10.07;3.87;;;18.00;67.50;;;;;;5108828;28;20718;-87
2022/07/10 05:35:58;;;;;;;15.13;5.07;;;18.10;67.50;;;;;;5106559;28;20275;-88
2022/07/10 05:38:27;;;;;;;10.10;3.87;;;18.00;67.70;;;;;;5114758;27;20207;-88
2022/07/10 05:40:54;;;;;;;9.67;3.53;;;18.10;68.80;;;;;;5133953;27;20238;-87
2022/07/10 05:43:21;;;;;;;11.27;4.30;;;18.10;67.70;;;;;;5137178;27;20215;-86
2022/07/10 05:45:49;;;;;;;9.63;3.47;;;18.20;67.70;;;;;;5128242;28;20238;-88
2022/07/10 05:48:16;;;;;;;10.77;4.17;;;18.30;67.90;;;;;;5120062;27;20675;-88
2022/07/10 05:50:43;;;;;;;10.07;3.97;;;18.30;67.70;;;;;;5109529;28;20235;-87
2022/07/10 05:53:11;;;;;;;8.90;3.83;;;18.40;67.80;;;;;;5118943;28;20264;-87
2022/07/10 05:55:38;;;;;;;14.10;5.13;;;18.40;67.80;;;;;;5128247;27;20259;-88
2022/07/10 05:58:05;;;;;;;11.83;4.23;;;18.50;67.80;;;;;;5137814;27;20284;-88
2022/07/10 06:00:32;;;;;;;11.80;3.83;;;18.50;67.90;;;;;;5127208;27;20268;-88
2022/07/10 06:02:59;;;;;;;9.83;3.73;;;18.60;68.00;;;;;;5120861;28;20301;-87
2022/07/10 06:05:26;;;;;;;20.67;6.57;;;18.70;67.90;;;;;;5123546;28;20236;-88
2022/07/10 06:07:53;;;;;;;9.17;3.77;;;18.70;67.70;;;;;;5118740;28;20238;-89
2022/07/10 06:10:21;;;;;;;12.97;3.90;;;18.70;67.30;;;;;;5126412;27;20784;-88
2022/07/10 06:12:48;;;;;;;9.37;3.33;;;18.80;67.40;;;;;;5131957;27;20223;-88
2022/07/10 06:15:15;;;;;;;9.33;3.40;;;18.90;67.50;;;;;;5114818;27;20213;-88
2022/07/10 06:17:42;;;;;;;13.27;4.37;;;18.90;67.40;;;;;;5111198;28;20290;-89
2022/07/10 06:20:10;;;;;;;9.90;4.13;;;19.00;67.40;;;;;;5124737;27;20211;-88
2022/07/10 06:22:37;;;;;;;9.97;3.53;;;19.10;67.40;;;;;;5123874;27;20295;-88
2022/07/10 06:25:07;;;;;;;10.53;3.80;;;19.10;67.20;;;;;;5110446;27;20233;-88
2022/07/10 06:27:36;;;;;;;11.43;3.40;;;19.20;67.40;;;;;;5116772;27;20224;-87
2022/07/10 06:30:05;;;;;;;15.87;5.37;;;19.30;67.50;;;;;;5125659;27;20715;-89
2022/07/10 06:32:32;;;;;;;7.57;3.23;;;19.30;67.30;;;;;;5117846;27;20201;-88
2022/07/10 06:34:59;;;;;;;12.50;4.50;;;19.40;67.20;;;;;;5111722;28;20320;-89
2022/07/10 06:37:27;;;;;;;11.87;4.37;;;19.50;67.00;;;;;;5125669;27;20700;-87
2022/07/10 06:39:54;;;;;;;12.27;4.17;;;19.50;66.70;;;;;;5130268;27;20673;-87
2022/07/10 06:42:21;;;;;;;12.77;3.97;;;19.60;66.40;;;;;;5118538;27;20229;-87
2022/07/10 06:44:50;;;;;;;10.07;4.07;;;19.60;66.10;;;;;;5112183;28;20233;-85
2022/07/10 06:50:04;;;;;;;12.63;4.80;;;19.80;65.80;;;;;;5139924;27;20228;-86
2022/07/10 06:52:33;;;;;;;12.07;4.37;;;19.80;65.50;;;;;;5129889;27;20294;-89
2022/07/10 06:55:03;;;;;;;12.33;3.60;;;19.90;65.30;;;;;;5130860;27;20216;-87
2022/07/10 06:57:31;;;;;;;9.20;3.10;;;20.00;65.40;;;;;;5130027;27;20229;-89
2022/07/10 07:00:00;;;;;;;10.30;3.73;;;20.00;65.40;;;;;;5131622;27;20301;-88
2022/07/10 07:02:27;;;;;;;10.53;3.80;;;20.10;65.20;;;;;;5129962;27;20233;-89
2022/07/10 07:04:56;;;;;;;9.30;3.67;;;20.20;65.10;;;;;;5131025;27;20217;-88
2022/07/10 07:07:23;;;;;;;15.40;5.13;;;20.20;64.70;;;;;;5113963;27;20234;-88
2022/07/10 07:09:50;;;;;;;11.60;3.73;;;20.30;64.70;;;;;;5125459;27;20202;-88
2022/07/10 07:12:18;;;;;;;10.27;3.37;;;20.30;64.60;;;;;;5111614;27;20225;-88
2022/07/10 07:14:45;;;;;;;10.97;3.50;;;20.40;64.50;;;;;;5109890;28;20212;-88
2022/07/10 07:17:14;;;;;;;10.30;3.57;;;20.50;64.40;;;;;;5116197;27;20213;-89
2022/07/10 07:25:26;;;;;;;13.03;5.23;;;20.70;64.20;;;;;;5113005;27;20280;-88
2022/07/10 07:27:52;;;;;;;11.57;4.20;;;20.70;64.20;;;;;;5113683;27;20229;-88
2022/07/10 07:30:20;;;;;;;20.13;6.17;;;20.80;64.20;;;;;;5117141;27;20248;-87
2022/07/10 07:32:51;;;;;;;16.00;5.23;;;20.90;63.80;;;;;;5106775;27;20305;-89
2022/07/10 07:35:19;;;;;;;9.60;3.77;;;20.90;63.80;;;;;;5109218;27;20620;-88
2022/07/10 07:37:47;;;;;;;12.87;4.70;;;21.00;63.70;;;;;;5118460;27;20716;-88
2022/07/10 07:40:16;;;;;;;10.63;3.77;;;21.10;63.70;;;;;;5128914;27;20233;-88
2022/07/10 07:42:43;;;;;;;10.50;3.80;;;21.10;63.40;;;;;;5118283;27;20275;-88
2022/07/10 07:45:10;;;;;;;9.87;3.87;;;21.20;63.40;;;;;;5127956;27;20238;-88
2022/07/10 07:47:46;;;;;;;11.67;3.97;;;21.30;63.00;;;;;;5127141;27;20237;-88
2022/07/10 07:50:19;;;;;;;13.30;3.93;;;21.30;63.40;;;;;;5124373;27;20255;-86
2022/07/10 07:52:47;;;;;;;11.40;4.60;;;21.40;62.50;;;;;;5108236;27;20205;-87
2022/07/10 07:55:15;;;;;;;9.20;3.80;;;21.50;62.80;;;;;;5124254;27;20313;-88
2022/07/10 07:57:43;;;;;;;9.27;3.57;;;21.50;62.80;;;;;;5129412;27;20201;-87
2022/07/10 08:00:12;;;;;;;12.90;5.03;;;21.60;62.80;;;;;;5119558;27;21207;-87
2022/07/10 08:02:39;;;;;;;11.87;4.00;;;21.70;62.70;;;;;;5126805;27;20193;-87
2022/07/10 08:05:10;;;;;;;17.87;6.27;;;21.70;62.30;;;;;;5122919;27;20301;-87
2022/07/10 08:07:41;;;;;;;15.43;5.40;;;21.80;62.60;;;;;;5107146;27;20198;-88
2022/07/10 08:10:13;;;;;;;12.17;4.43;;;21.90;62.20;;;;;;5115807;27;20716;-91
2022/07/10 08:12:41;;;;;;;9.03;3.47;;;21.90;62.00;;;;;;5123014;27;20190;-87
2022/07/10 08:15:09;;;;;;;14.80;5.60;;;22.00;62.00;;;;;;5116986;27;20254;-89
2022/07/10 08:17:36;;;;;;;12.33;4.50;;;22.10;61.90;;;;;;5115099;27;20296;-88
2022/07/10 08:20:04;;;;;;;20.37;7.37;;;22.10;61.70;;;;;;5119794;27;20205;-87
2022/07/10 08:22:31;;;;;;;14.70;5.37;;;22.20;61.30;;;;;;5102491;27;20297;-88
2022/07/10 08:25:00;;;;;;;16.40;6.07;;;22.20;61.70;;;;;;5107799;27;20226;-88
2022/07/10 08:27:27;;;;;;;14.70;5.20;;;22.30;61.70;;;;;;5114827;27;20229;-90
2022/07/10 08:29:54;;;;;;;10.63;3.90;;;22.40;61.60;;;;;;5125464;27;20201;-87
2022/07/10 08:32:22;;;;;;;6.97;2.97;;;22.50;61.50;;;;;;5123591;27;20670;-87
2022/07/10 08:34:49;;;;;;;15.70;5.30;;;22.60;61.40;;;;;;5121133;27;20648;-87
2022/07/10 08:37:16;;;;;;;9.40;3.90;;;22.60;61.40;;;;;;5129025;27;20456;-89
2022/07/10 08:39:43;;;;;;;7.73;3.33;;;22.70;61.20;;;;;;5127044;27;20292;-89
2022/07/10 08:42:11;;;;;;;9.40;3.33;;;22.80;61.50;;;;;;5128409;27;20245;-87
2022/07/10 08:44:39;;;;;;;10.57;4.17;;;23.00;61.10;;;;;;5116773;27;20863;-88
2022/07/10 08:47:06;;;;;;;10.97;4.13;;;23.10;60.80;;;;;;5124541;27;20285;-88
2022/07/10 08:49:35;;;;;;;10.87;4.00;;;23.30;61.10;;;;;;5125475;27;20567;-86
2022/07/10 08:52:05;;;;;;;7.90;3.30;;;23.40;60.70;;;;;;5120635;27;20256;-88
2022/07/10 08:54:34;;;;;;;7.40;3.10;;;23.60;61.00;;;;;;5125015;27;20811;-88
2022/07/10 08:57:02;;;;;;;12.50;4.77;;;23.80;61.40;;;;;;5106197;28;20618;-87
2022/07/10 08:59:31;;;;;;;8.67;2.97;;;24.10;61.00;;;;;;5126624;27;20237;-89
2022/07/10 09:01:58;;;;;;;7.17;2.87;;;24.30;60.70;;;;;;5114232;27;21015;-87
2022/07/10 09:04:27;;;;;;;13.57;4.80;;;24.50;59.30;;;;;;5122834;27;20626;-87
2022/07/10 09:06:55;;;;;;;9.70;3.70;;;24.70;59.60;;;;;;5125597;27;20254;-86
2022/07/10 09:09:25;;;;;;;6.77;2.93;;;24.90;58.90;;;;;;5120794;27;20231;-88
2022/07/10 09:11:57;;;;;;;8.03;3.57;;;25.20;58.50;;;;;;5127898;27;20305;-88
2022/07/10 09:14:27;;;;;;;10.40;4.23;;;25.40;57.70;;;;;;5118381;27;20284;-87
2022/07/10 09:16:56;;;;;;;8.30;3.53;;;25.60;57.60;;;;;;5125322;27;20285;-88
2022/07/10 09:19:24;;;;;;;14.63;5.27;;;25.80;57.30;;;;;;5120657;27;20284;-87
2022/07/10 09:21:54;;;;;;;7.53;3.50;;;26.00;57.30;;;;;;5115231;27;20205;-87
2022/07/10 09:24:23;;;;;;;10.10;4.00;;;26.20;57.60;;;;;;5119808;28;20201;-87
2022/07/10 09:27:00;;;;;;;10.63;3.93;;;26.40;57.30;;;;;;5116065;28;20646;-86
2022/07/10 09:29:28;;;;;;;8.00;3.73;;;26.50;55.50;;;;;;5111184;28;20197;-88
2022/07/10 09:31:57;;;;;;;7.83;3.37;;;26.70;56.20;;;;;;5126962;28;20613;-89
2022/07/10 09:34:39;;;;;;;8.10;3.67;;;26.80;55.70;;;;;;5126857;27;20197;-87
2022/07/10 09:37:20;;;;;;;5.53;2.43;;;26.90;55.10;;;;;;5124031;28;20199;-89
2022/07/10 09:39:55;;;;;;;7.93;3.77;;;27.10;54.90;;;;;;5120312;28;20993;-87
2022/07/10 09:42:30;;;;;;;7.70;3.30;;;27.20;54.30;;;;;;5127920;28;20802;-90
2022/07/10 09:45:17;;;;;;;11.13;4.63;;;27.30;54.00;;;;;;5129896;27;20224;-89
2022/07/10 09:47:47;;;;;;;7.10;3.30;;;27.40;53.40;;;;;;5130339;27;20197;-90
2022/07/10 09:50:25;;;;;;;9.80;3.90;;;27.50;54.20;;;;;;5129430;27;20205;-91
2022/07/10 09:52:55;;;;;;;6.10;2.90;;;27.50;53.20;;;;;;5119584;27;20707;-88
2022/07/10 09:55:26;;;;;;;7.57;3.60;;;27.60;53.30;;;;;;5111255;28;20606;-87
2022/07/10 09:57:56;;;;;;;6.63;3.03;;;27.70;53.40;;;;;;5115893;27;20229;-88
2022/07/10 10:00:26;;;;;;;7.27;3.23;;;27.70;53.50;;;;;;5114094;27;20225;-88
2022/07/10 10:03:00;;;;;;;12.03;5.10;;;27.70;53.20;;;;;;5129859;27;20207;-89
2022/07/10 10:05:36;;;;;;;11.33;5.10;;;27.70;52.70;;;;;;5112017;27;20697;-88
2022/07/10 10:08:12;;;;;;;5.87;2.00;;;27.80;52.50;;;;;;5126892;27;20233;-87
2022/07/10 10:10:48;;;;;;;12.90;5.73;;;27.80;52.50;;;;;;5129005;27;20649;-90
2022/07/10 10:13:20;;;;;;;7.97;3.20;;;27.80;52.50;;;;;;5134272;27;20717;-95
2022/07/10 10:15:50;;;;;;;7.50;3.23;;;27.80;52.10;;;;;;5126666;27;20203;-94
2022/07/10 10:18:20;;;;;;;5.83;2.73;;;27.80;52.50;;;;;;5116796;27;20974;-90
2022/07/10 10:20:52;;;;;;;5.73;2.90;;;27.90;52.20;;;;;;5117669;27;20614;-94
2022/07/10 10:23:21;;;;;;;6.63;3.53;;;27.90;52.10;;;;;;5124528;27;20213;-94
2022/07/10 10:25:57;;;;;;;8.53;3.20;;;27.90;52.50;;;;;;5134955;27;20262;-95
2022/07/10 10:28:29;;;;;;;5.97;2.83;;;28.00;51.90;;;;;;5140511;27;20250;-95
2022/07/10 10:33:47;;;;;;;3.97;1.63;;;28.00;52.30;;;;;;5115413;27;20503;-96
2022/07/10 10:36:45;;;;;;;7.93;2.97;;;28.10;52.10;;;;;;5118862;27;20229;-96
2022/07/10 10:39:21;;;;;;;6.03;2.07;;;28.10;51.40;;;;;;5128546;27;20204;-95
2022/07/10 10:42:29;;;;;;;7.63;3.13;;;28.20;51.40;;;;;;5133937;27;20198;-94
2022/07/10 10:45:27;;;;;;;7.37;2.63;;;28.30;51.30;;;;;;5122032;28;20226;-93
2022/07/10 10:51:12;;;;;;;6.33;3.07;;;28.40;51.00;;;;;;5111751;22;20312;-95
2022/07/10 10:54:06;;;;;;;9.90;4.10;;;28.40;51.50;;;;;;5094959;28;20213;-96
2022/07/10 10:56:38;;;;;;;5.80;2.73;;;28.50;50.70;;;;;;5088694;28;20279;-96
2022/07/10 10:59:09;;;;;;;5.30;2.20;;;28.50;51.30;;;;;;5063970;28;20200;-95
2022/07/10 11:01:38;;;;;;;5.00;2.50;;;28.60;50.60;;;;;;5065982;28;20234;-94
2022/07/10 11:04:17;;;;;;;6.73;3.30;;;28.70;50.90;;;;;;5072733;28;20614;-95
2022/07/10 11:06:48;;;;;;;8.60;3.17;;;28.80;50.10;;;;;;5074500;28;20314;-94
2022/07/10 11:09:32;;;;;;;7.47;3.50;;;28.80;50.60;;;;;;5074013;28;20602;-96
2022/07/10 11:12:06;;;;;;;6.07;2.97;;;28.90;49.70;;;;;;5071094;28;20203;-96
2022/07/10 11:14:37;;;;;;;5.10;2.63;;;29.00;49.90;;;;;;5075104;28;20227;-95
2022/07/10 11:17:12;;;;;;;4.70;1.97;;;29.10;50.30;;;;;;5073820;28;20552;-96
2022/07/10 11:19:44;;;;;;;4.53;2.17;;;29.20;50.00;;;;;;5068675;28;20208;-96
2022/07/10 11:22:44;;;;;;;4.83;2.37;;;29.30;50.30;;;;;;5073773;28;20207;-96
2022/07/10 11:25:30;;;;;;;3.13;1.57;;;29.50;49.50;;;;;;5070547;28;20223;-96
2022/07/10 11:28:08;;;;;;;4.13;2.30;;;29.60;48.90;;;;;;5077952;28;20229;-96
2022/07/10 11:30:47;;;;;;;3.40;1.80;;;29.70;48.40;;;;;;5072973;28;20309;-96
2022/07/10 11:33:17;;;;;;;5.00;1.97;;;29.80;48.20;;;;;;5078590;28;20280;-96
2022/07/10 11:35:48;;;;;;;3.23;1.63;;;29.80;48.20;;;;;;5083241;28;20257;-96
2022/07/10 11:38:22;;;;;;;5.93;2.77;;;29.90;48.40;;;;;;5077112;28;20195;-96
2022/07/10 11:40:54;;;;;;;3.47;2.23;;;30.00;47.80;;;;;;5078079;28;20199;-96
2022/07/10 11:43:23;;;;;;;5.63;2.23;;;30.00;48.20;;;;;;5078457;28;20192;-96
2022/07/10 11:46:00;;;;;;;7.30;3.67;;;30.10;48.20;;;;;;5061626;28;20239;-96
2022/07/10 11:48:40;;;;;;;3.57;1.73;;;30.10;48.00;;;;;;5056137;28;20215;-96
2022/07/10 11:51:28;;;;;;;5.57;2.50;;;30.20;47.20;;;;;;5051725;28;20209;-96
2022/07/10 11:57:10;;;;;;;7.50;2.30;;;30.30;47.20;;;;;;5036290;28;20223;-96
2022/07/10 11:59:56;;;;;;;4.73;2.07;;;30.30;46.80;;;;;;5048320;28;20192;-96
2022/07/10 12:02:27;;;;;;;2.83;1.50;;;30.40;46.10;;;;;;5056356;28;20189;-96
2022/07/10 12:04:54;;;;;;;5.50;2.73;;;30.40;46.00;;;;;;5037455;28;20213;-92
2022/07/10 12:07:21;;;;;;;6.27;2.63;;;30.50;47.10;;;;;;5032217;28;20201;-90
2022/07/10 12:09:55;;;;;;;5.40;2.78;;;30.50;46.40;;;;;;5054020;28;20728;-89
2022/07/10 12:12:24;;;;;;;6.18;3.22;;;30.50;46.10;;;;;;5042241;28;20229;-90
2022/07/10 12:14:51;;;;;;;6.13;3.45;;;30.60;46.20;;;;;;5030754;28;20692;-91
2022/07/10 12:17:18;;;;;;;6.13;3.00;;;30.70;46.00;;;;;;5043940;28;20207;-90
2022/07/10 12:19:46;;;;;;;6.50;3.33;;;30.70;45.90;;;;;;5046377;28;20200;-90
2022/07/10 12:22:15;;;;;;;6.50;3.53;;;30.80;46.20;;;;;;5045995;28;20295;-89
2022/07/10 12:24:43;;;;;;;5.65;3.13;;;30.80;45.60;;;;;;5038379;28;20259;-91
2022/07/10 12:27:11;;;;;;;4.38;2.55;;;30.90;45.80;;;;;;5025702;28;20233;-90
2022/07/10 12:30:24;;;;;;;9.02;4.15;;;30.90;45.00;;;;;;5029617;28;20204;-93
2022/07/10 12:36:04;;;;;;;9.53;4.53;;;31.00;43.90;;;;;;5031431;28;20292;-89
2022/07/10 12:38:40;;;;;;;7.57;3.50;;;31.00;44.70;;;;;;5048663;28;20664;-90
2022/07/10 12:41:16;;;;;;;6.95;3.03;;;31.10;43.80;;;;;;5034607;28;20672;-90
2022/07/10 12:43:48;;;;;;;8.38;3.05;;;31.10;44.30;;;;;;5046176;28;20207;-90
2022/07/10 12:46:16;;;;;;;8.88;4.40;;;31.20;43.80;;;;;;5034071;28;20226;-91
2022/07/10 12:48:44;;;;;;;6.72;3.47;;;31.20;43.80;;;;;;5027875;28;20304;-91
2022/07/10 12:51:25;;;;;;;6.75;3.45;;;31.30;43.60;;;;;;5028915;28;20243;-91
2022/07/10 12:53:53;;;;;;;11.63;5.45;;;31.30;43.10;;;;;;5041538;28;20270;-90
2022/07/10 12:56:30;;;;;;;8.48;4.32;;;31.40;43.80;;;;;;5037148;28;20216;-89
2022/07/10 12:58:59;;;;;;;6.88;3.30;;;31.40;42.40;;;;;;5036063;28;20279;-90
2022/07/10 13:01:28;;;;;;;6.68;3.40;;;31.50;43.20;;;;;;5030289;28;20729;-90
2022/07/10 13:04:02;;;;;;;8.13;3.42;;;31.60;43.10;;;;;;5046068;28;20555;-90
2022/07/10 13:06:33;;;;;;;6.35;3.58;;;31.60;42.60;;;;;;5035021;28;20230;-90
2022/07/10 13:09:00;;;;;;;7.15;3.50;;;31.70;42.80;;;;;;5040039;28;20200;-91
2022/07/10 13:11:28;;;;;;;6.63;3.42;;;31.70;42.90;;;;;;5043608;28;20206;-90
2022/07/10 13:13:55;;;;;;;6.03;3.00;;;31.80;43.00;;;;;;5046757;28;20208;-90
2022/07/10 13:16:27;;;;;;;9.63;4.55;;;31.80;42.30;;;;;;5034286;28;20205;-93
2022/07/10 13:18:54;;;;;;;6.38;3.08;;;31.90;42.20;;;;;;5028568;28;20254;-89
2022/07/10 13:21:21;;;;;;;6.70;3.15;;;31.90;42.10;;;;;;5025825;28;20208;-90
2022/07/10 13:23:48;;;;;;;9.68;4.70;;;32.00;41.90;;;;;;5026894;28;20215;-91
2022/07/10 13:26:16;;;;;;;8.77;4.15;;;32.10;41.90;;;;;;5029833;28;20227;-91